Time;durP1;ratioP1;P1;durP2;ratioP2;P2;SDS_P1;SDS_P2;PMS_P1;PMS_P2;Temp;Humidity;BMP_temperature;BMP_pressure;BME280_temperature;BME280_humidity;BME280_pressure;Samples;Min_cycle;Max_cycle;Signal;HPM_P1;HPM_P2
2022/05/16 00:00:16;;;;;;;14.75;3.78;;;;;;;19.55;45.04;101276.09;5035470;28;20048;-50
2022/05/16 00:02:44;;;;;;;11.52;3.78;;;;;;;19.55;44.97;101270.56;5033227;28;20045;-48
2022/05/16 00:05:12;;;;;;;12.45;3.92;;;;;;;19.56;44.96;101271.38;5015484;28;20058;-49
2022/05/16 00:07:41;;;;;;;11.68;3.83;;;;;;;19.55;45.17;101262.28;5017420;28;20034;-49
2022/05/16 00:10:09;;;;;;;11.07;3.83;;;;;;;19.55;45.16;101254.00;5018039;28;20042;-44
2022/05/16 00:12:37;;;;;;;10.57;3.80;;;;;;;19.56;45.06;101255.59;5017655;28;20107;-47
2022/05/16 00:15:07;;;;;;;11.73;3.28;;;;;;;19.60;45.12;101258.53;5017482;28;20056;-47
2022/05/16 00:17:35;;;;;;;12.48;3.78;;;;;;;19.58;45.20;101256.09;5032330;28;20491;-48
2022/05/16 00:20:03;;;;;;;9.85;4.07;;;;;;;19.53;45.34;101255.41;5034837;28;20041;-47
2022/05/16 00:22:31;;;;;;;14.10;3.88;;;;;;;19.46;45.28;101247.59;5034282;28;20492;-46
2022/05/16 00:24:59;;;;;;;15.57;4.15;;;;;;;19.38;45.74;101251.13;5032060;28;20065;-48
2022/05/16 00:27:27;;;;;;;13.98;4.63;;;;;;;19.34;45.65;101250.94;5016881;28;20050;-49
2022/05/16 00:29:54;;;;;;;10.82;3.67;;;;;;;19.33;45.76;101242.97;5014913;28;20046;-47
2022/05/16 00:32:23;;;;;;;12.32;4.40;;;;;;;19.26;46.08;101246.19;5014402;28;20050;-47
2022/05/16 00:34:50;;;;;;;9.75;3.33;;;;;;;19.22;46.19;101239.66;5014746;28;20042;-48
2022/05/16 00:37:18;;;;;;;11.10;4.18;;;;;;;19.23;46.31;101234.94;5031579;28;20473;-46
2022/05/16 00:39:45;;;;;;;14.77;4.53;;;;;;;19.29;46.29;101241.97;5032021;28;20049;-46
2022/05/16 00:42:13;;;;;;;11.68;3.88;;;;;;;19.32;46.21;101236.63;5032400;28;20049;-48
2022/05/16 00:44:41;;;;;;;10.90;4.13;;;;;;;19.37;46.16;101241.22;5016692;28;20041;-44
2022/05/16 00:47:09;;;;;;;15.07;4.88;;;;;;;19.36;46.11;101239.56;5019650;28;20038;-47
2022/05/16 00:49:41;;;;;;;12.75;3.72;;;;;;;19.34;46.24;101233.56;5014494;28;20046;-46
2022/05/16 00:52:34;;;;;;;12.85;3.80;;;;;;;19.28;46.30;101229.28;4998100;28;20104;-48
2022/05/16 00:55:09;;;;;;;11.65;3.90;;;;;;;19.22;46.75;101227.78;4998166;28;20088;-47
2022/05/16 00:57:41;;;;;;;15.73;5.10;;;;;;;19.20;46.81;101230.88;5015225;28;20042;-47
2022/05/16 01:00:26;;;;;;;11.07;3.72;;;;;;;19.18;46.94;101227.63;5004112;28;20420;-47
2022/05/16 01:06:22;;;;;;;9.82;3.45;;;;;;;19.11;47.24;101219.78;5004425;28;19983;-48
2022/05/16 01:08:50;;;;;;;13.65;4.82;;;;;;;19.09;47.39;101212.94;5014325;28;20053;-47
2022/05/16 01:11:19;;;;;;;11.20;4.00;;;;;;;19.06;47.54;101214.38;5014246;28;20053;-47
2022/05/16 01:13:47;;;;;;;12.10;4.30;;;;;;;19.04;47.57;101219.41;5018804;28;20546;-47
2022/05/16 01:16:14;;;;;;;13.95;4.50;;;;;;;19.06;47.63;101213.56;5032427;28;20042;-49
2022/05/16 01:18:42;;;;;;;11.15;4.00;;;;;;;19.07;47.68;101215.19;5031981;28;20029;-47
2022/05/16 01:21:22;;;;;;;9.65;3.67;;;;;;;19.08;47.71;101216.84;5008624;28;20054;-47
2022/05/16 01:24:15;;;;;;;11.73;4.50;;;;;;;19.11;47.66;101221.72;5015758;28;20053;-47
2022/05/16 01:26:44;;;;;;;10.50;3.90;;;;;;;19.09;47.94;101207.41;5032204;28;20389;-47
2022/05/16 01:29:11;;;;;;;11.32;4.50;;;;;;;19.05;47.99;101212.75;5032993;28;20108;-47
2022/05/16 01:31:41;;;;;;;12.68;4.13;;;;;;;19.04;48.08;101216.63;5033669;28;20408;-48
2022/05/16 01:34:08;;;;;;;10.98;3.95;;;;;;;19.03;48.12;101214.22;5013966;28;20068;-48
2022/05/16 01:36:37;;;;;;;13.88;4.05;;;;;;;18.93;48.62;101213.34;5026026;28;20046;-48
2022/05/16 01:39:06;;;;;;;13.02;3.75;;;;;;;18.86;48.79;101212.97;4996303;28;20070;-51
2022/05/16 01:41:33;;;;;;;12.70;4.15;;;;;;;18.78;49.13;101201.84;4996383;28;20038;-50
2022/05/16 01:44:02;;;;;;;12.80;4.25;;;;;;;18.73;49.18;101206.31;5023347;28;20049;-50
2022/05/16 01:46:36;;;;;;;13.77;4.10;;;;;;;18.72;49.44;101203.91;5013073;28;20045;-52
2022/05/16 01:49:06;;;;;;;12.02;4.30;;;;;;;18.70;49.32;101200.63;5033594;28;20081;-49
2022/05/16 01:51:36;;;;;;;14.05;4.65;;;;;;;18.76;49.36;101198.56;5033092;28;20136;-49
2022/05/16 01:54:04;;;;;;;11.10;4.07;;;;;;;18.76;49.28;101196.66;5031419;28;20072;-48
2022/05/16 01:56:33;;;;;;;12.15;4.72;;;;;;;18.77;49.34;101197.47;5015354;28;20045;-50
2022/05/16 01:59:01;;;;;;;15.55;4.57;;;;;;;18.73;49.55;101184.25;5033454;28;20091;-47
2022/05/16 02:01:29;;;;;;;11.27;4.05;;;;;;;18.70;49.49;101186.84;5031351;28;20048;-46
2022/05/16 02:03:57;;;;;;;10.73;4.07;;;;;;;18.74;49.73;101187.84;5032733;28;20041;-50
2022/05/16 02:06:25;;;;;;;11.18;4.13;;;;;;;18.78;49.56;101186.09;5026546;28;20050;-46
2022/05/16 02:08:54;;;;;;;14.23;4.97;;;;;;;18.79;49.56;101182.22;5013224;28;20420;-47
2022/05/16 02:11:22;;;;;;;12.18;4.32;;;;;;;18.84;49.45;101178.53;4995983;28;20046;-48
2022/05/16 02:13:49;;;;;;;10.77;4.03;;;;;;;18.81;49.68;101173.59;5013461;28;20396;-45
2022/05/16 02:16:17;;;;;;;14.00;4.68;;;;;;;18.81;49.82;101179.97;5018454;28;20459;-47
2022/05/16 02:18:45;;;;;;;10.15;3.92;;;;;;;18.73;50.01;101175.97;5031202;28;20033;-48
2022/05/16 02:26:46;;;;;;;13.55;4.57;;;;;;;18.65;50.46;101170.41;5022498;28;20073;-47
2022/05/16 02:29:16;;;;;;;13.35;4.80;;;;;;;18.64;50.66;101175.13;5024665;28;20065;-49
2022/05/16 02:31:45;;;;;;;14.25;4.78;;;;;;;18.66;50.49;101164.53;5030913;28;20037;-48
2022/05/16 02:34:14;;;;;;;10.93;4.18;;;;;;;18.67;50.53;101163.44;5032686;28;20539;-49
2022/05/16 02:36:42;;;;;;;11.50;4.65;;;;;;;18.65;50.79;101149.13;4994800;28;20050;-47
2022/05/16 02:39:11;;;;;;;13.43;5.13;;;;;;;18.58;51.00;101157.03;4995828;28;20156;-48
2022/05/16 02:41:39;;;;;;;12.38;4.55;;;;;;;18.50;51.17;101157.81;4999465;28;20041;-50
2022/05/16 02:44:06;;;;;;;9.77;4.30;;;;;;;18.47;51.50;101163.91;5021753;28;20037;-48
2022/05/16 02:46:34;;;;;;;12.10;3.95;;;;;;;18.45;51.71;101160.69;5034100;28;20038;-50
2022/05/16 02:49:03;;;;;;;13.70;4.65;;;;;;;18.41;51.84;101156.91;5036136;28;20129;-48
2022/05/16 02:51:31;;;;;;;12.18;4.65;;;;;;;18.36;51.91;101162.56;5019301;28;20049;-49
2022/05/16 02:53:58;;;;;;;11.00;4.60;;;;;;;18.35;51.95;101155.41;5016640;28;20100;-52
2022/05/16 02:56:26;;;;;;;14.18;4.28;;;;;;;18.36;51.96;101152.34;5005352;28;20047;-53
2022/05/16 02:58:54;;;;;;;11.57;4.47;;;;;;;18.37;52.05;101151.19;5018771;28;20049;-50
2022/05/16 03:01:21;;;;;;;12.35;4.43;;;;;;;18.39;51.91;101145.38;5036221;28;20052;-49
2022/05/16 03:03:49;;;;;;;11.55;4.35;;;;;;;18.38;52.12;101149.28;5035297;28;20068;-48
2022/05/16 03:06:17;;;;;;;11.77;4.28;;;;;;;18.33;52.29;101138.34;5036467;28;20045;-48
2022/05/16 03:08:45;;;;;;;12.20;4.65;;;;;;;18.31;52.25;101136.72;5033940;28;20033;-47
2022/05/16 03:11:13;;;;;;;13.80;4.43;;;;;;;18.26;52.47;101125.81;5032291;28;20052;-46
2022/05/16 03:13:41;;;;;;;10.80;4.45;;;;;;;18.20;52.60;101123.47;5021752;28;20049;-46
2022/05/16 03:16:08;;;;;;;10.23;4.10;;;;;;;18.15;52.80;101127.16;5016270;28;20477;-43
2022/05/16 03:18:36;;;;;;;11.10;4.28;;;;;;;18.16;53.04;101126.06;5020170;28;20068;-49
2022/05/16 03:21:03;;;;;;;11.15;4.72;;;;;;;18.14;53.00;101122.78;5032305;28;20092;-48
2022/05/16 03:23:31;;;;;;;12.00;4.53;;;;;;;18.16;52.97;101128.81;5025003;28;20513;-47
2022/05/16 03:25:59;;;;;;;12.98;4.82;;;;;;;18.15;53.08;101123.59;5018867;28;20050;-47
2022/05/16 03:28:27;;;;;;;12.45;4.53;;;;;;;18.16;53.11;101119.69;5016246;28;20042;-49
2022/05/16 03:30:57;;;;;;;12.38;4.70;;;;;;;18.14;53.29;101116.47;4999701;28;20156;-51
2022/05/16 03:33:25;;;;;;;13.10;4.72;;;;;;;18.11;53.54;101123.38;5017273;28;20057;-51
2022/05/16 03:35:55;;;;;;;11.88;4.53;;;;;;;18.04;53.42;101123.03;5015859;28;20124;-48
2022/05/16 03:41:14;;;;;;;12.13;4.60;;;;;;;18.04;53.99;101123.03;5021000;28;20044;-47
2022/05/16 03:43:42;;;;;;;12.73;4.53;;;;;;;18.08;53.69;101130.34;5000175;28;20091;-48
2022/05/16 03:46:10;;;;;;;11.10;4.50;;;;;;;18.12;53.68;101127.78;5033935;28;20034;-45
2022/05/16 03:48:38;;;;;;;10.15;4.35;;;;;;;18.15;53.65;101134.63;5017606;28;20052;-51
2022/05/16 03:51:06;;;;;;;11.07;4.72;;;;;;;18.15;53.57;101134.63;4998505;28;20050;-47
2022/05/16 03:53:36;;;;;;;14.40;4.68;;;;;;;18.09;53.95;101115.44;4997500;28;20042;-47
2022/05/16 03:56:04;;;;;;;14.50;5.13;;;;;;;18.10;53.97;101121.78;5016601;28;20038;-47
2022/05/16 03:58:32;;;;;;;11.23;4.72;;;;;;;18.10;53.80;101127.28;5016483;28;20515;-47
2022/05/16 04:00:59;;;;;;;11.98;4.53;;;;;;;18.08;54.17;101122.06;5030433;28;20049;-48
2022/05/16 04:03:27;;;;;;;16.05;4.70;;;;;;;18.04;54.20;101120.28;5032919;28;20037;-48
2022/05/16 04:05:55;;;;;;;13.90;4.63;;;;;;;18.03;54.24;101126.91;5034087;28;20504;-48
2022/05/16 04:08:22;;;;;;;11.30;4.43;;;;;;;18.03;54.29;101118.63;5032686;28;20532;-48
2022/05/16 04:10:50;;;;;;;11.15;4.45;;;;;;;18.05;54.35;101124.66;5013130;28;20053;-47
2022/05/16 04:13:23;;;;;;;10.73;4.53;;;;;;;18.03;54.65;101127.72;4997919;28;20038;-46
2022/05/16 04:15:50;;;;;;;10.45;4.38;;;;;;;18.02;54.59;101128.03;4999979;28;20053;-46
2022/05/16 04:18:19;;;;;;;10.70;4.57;;;;;;;18.03;54.54;101122.19;5034027;28;20045;-45
2022/05/16 04:20:47;;;;;;;11.68;4.53;;;;;;;18.07;54.48;101127.91;5014147;28;20069;-47
2022/05/16 04:23:15;;;;;;;10.57;4.13;;;;;;;18.06;54.58;101115.25;5015131;28;20052;-48
2022/05/16 04:25:42;;;;;;;9.88;4.45;;;;;;;18.09;54.52;101114.63;5014091;28;20046;-52
2022/05/16 04:28:10;;;;;;;13.45;4.18;;;;;;;18.09;54.40;101109.94;5013924;28;20042;-49
2022/05/16 04:30:39;;;;;;;11.45;4.15;;;;;;;18.07;54.67;101120.47;5014170;28;20050;-53
2022/05/16 04:33:07;;;;;;;12.60;4.43;;;;;;;18.08;54.64;101110.22;5005909;28;20077;-54
2022/05/16 04:35:36;;;;;;;10.68;4.63;;;;;;;18.11;54.59;101117.88;5033471;28;20045;-49
2022/05/16 04:38:05;;;;;;;12.75;4.65;;;;;;;18.07;54.80;101117.69;5016167;28;20048;-47
2022/05/16 04:40:33;;;;;;;14.40;5.15;;;;;;;18.04;54.78;101125.78;5027970;28;20507;-46
2022/05/16 04:43:01;;;;;;;10.35;4.80;;;;;;;18.04;55.07;101125.78;5034182;28;20100;-48
2022/05/16 04:45:30;;;;;;;13.70;4.60;;;;;;;18.08;54.92;101135.06;5034170;28;20038;-45
2022/05/16 04:48:01;;;;;;;9.35;3.97;;;;;;;18.11;54.98;101128.91;5034533;28;20464;-48
2022/05/16 04:50:34;;;;;;;9.50;4.50;;;;;;;18.14;54.85;101124.75;5020446;28;20124;-47
2022/05/16 04:53:01;;;;;;;9.98;4.40;;;;;;;18.12;55.08;101124.22;5015290;28;20100;-47
2022/05/16 04:55:30;;;;;;;9.85;4.13;;;;;;;18.10;55.13;101138.31;5014423;28;20499;-46
2022/05/16 04:57:58;;;;;;;11.07;4.15;;;;;;;18.14;55.36;101133.00;4997119;28;20046;-46
2022/05/16 05:00:26;;;;;;;12.45;4.60;;;;;;;18.15;55.03;101135.44;5015206;28;20096;-48
2022/05/16 05:02:54;;;;;;;15.68;5.07;;;;;;;18.19;54.94;101130.94;5022369;28;20040;-47
2022/05/16 05:05:22;;;;;;;11.43;4.35;;;;;;;18.22;54.95;101135.00;5026702;28;20496;-50
2022/05/16 05:07:50;;;;;;;13.52;4.50;;;;;;;18.25;54.71;101146.22;4997134;28;20046;-48
2022/05/16 05:16:11;;;;;;;8.85;4.18;;;;;;;18.39;54.76;101139.84;5018455;28;20120;-48
2022/05/16 05:18:40;;;;;;;17.63;4.78;;;;;;;18.40;54.66;101145.06;5033611;28;20558;-48
2022/05/16 05:21:08;;;;;;;15.20;4.75;;;;;;;18.41;54.57;101140.34;5012187;28;20073;-48
2022/05/16 05:23:38;;;;;;;8.55;3.95;;;;;;;18.39;54.82;101140.66;5013937;28;20046;-49
2022/05/16 05:26:07;;;;;;;12.10;4.38;;;;;;;18.40;54.87;101144.22;5014905;28;20464;-48
2022/05/16 05:28:35;;;;;;;11.57;4.30;;;;;;;18.41;54.89;101143.13;5015100;28;20385;-48
2022/05/16 05:31:03;;;;;;;12.82;5.00;;;;;;;18.45;54.82;101138.63;4997305;28;20042;-51
2022/05/16 05:33:30;;;;;;;11.05;4.15;;;;;;;18.48;54.91;101130.50;5000126;28;20412;-47
2022/05/16 05:35:58;;;;;;;9.07;4.38;;;;;;;18.51;55.21;101132.63;5033240;28;20080;-50
2022/05/16 05:38:26;;;;;;;9.80;4.70;;;;;;;18.54;55.21;101136.72;5016067;28;20041;-46
2022/05/16 05:40:53;;;;;;;11.57;4.85;;;;;;;18.56;55.06;101136.41;5013825;28;20041;-50
2022/05/16 05:43:21;;;;;;;11.15;4.90;;;;;;;18.62;55.06;101137.91;5013458;28;20493;-47
2022/05/16 05:45:49;;;;;;;14.20;4.68;;;;;;;18.63;54.61;101145.88;5013608;28;20475;-47
2022/05/16 05:48:23;;;;;;;18.92;5.70;;;;;;;18.65;54.75;101151.88;5015043;28;20128;-49
2022/05/16 05:50:51;;;;;;;19.58;5.38;;;;;;;18.64;54.57;101147.50;5014188;28;20041;-51
2022/05/16 05:53:19;;;;;;;10.70;5.45;;;;;;;18.65;54.44;101146.38;5012526;28;20049;-49
2022/05/16 05:55:50;;;;;;;17.27;5.22;;;;;;;18.69;54.65;101135.53;5033355;28;20477;-50
2022/05/16 05:58:18;;;;;;;12.50;4.32;;;;;;;18.74;54.78;101127.13;5033316;28;20460;-46
2022/05/16 06:00:45;;;;;;;14.05;5.13;;;;;;;18.78;55.12;101147.44;5014680;28;20034;-48
2022/05/16 06:03:14;;;;;;;13.60;5.88;;;;;;;18.75;55.20;101139.78;5031734;28;20493;-48
2022/05/16 06:05:42;;;;;;;13.35;5.05;;;;;;;18.76;55.10;101148.88;4680612;28;10000300;-54
2022/05/16 06:08:09;;;;;;;12.15;5.25;;;;;;;18.78;55.26;101160.44;5029722;28;20055;-49
2022/05/16 06:10:37;;;;;;;18.13;5.90;;;;;;;18.79;55.31;101164.84;5027790;28;20378;-49
2022/05/16 06:13:04;;;;;;;12.60;5.03;;;;;;;18.79;55.24;101162.09;5029732;28;20054;-49
2022/05/16 06:15:32;;;;;;;14.48;5.72;;;;;;;18.81;55.55;101168.09;5030409;28;20041;-50
2022/05/16 06:18:00;;;;;;;14.73;5.60;;;;;;;18.82;55.30;101164.22;5027705;28;20057;-48
2022/05/16 06:20:28;;;;;;;15.95;5.70;;;;;;;18.82;54.90;101165.03;5000175;28;20037;-44
2022/05/16 06:22:56;;;;;;;14.18;5.47;;;;;;;18.82;55.23;101158.69;5017954;28;20473;-47
2022/05/16 06:25:42;;;;;;;13.02;5.13;;;;;;;18.83;55.12;101165.81;5032780;28;20041;-51
2022/05/16 06:28:15;;;;;;;8.70;4.32;;;;;;;18.85;55.18;101169.09;5032151;28;20393;-49
2022/05/16 06:30:45;;;;;;;10.95;4.93;;;;;;;18.88;55.00;101171.22;5031831;28;20038;-48
2022/05/16 06:33:14;;;;;;;14.55;5.00;;;;;;;18.89;55.21;101175.63;5030658;28;20052;-48
2022/05/16 06:35:42;;;;;;;11.30;5.07;;;;;;;18.91;55.19;101173.38;5015805;28;20045;-50
2022/05/16 06:38:25;;;;;;;12.85;5.30;;;;;;;18.92;55.29;101186.03;5033268;28;20634;-49
2022/05/16 06:40:54;;;;;;;13.63;4.33;;;;;;;18.95;55.09;101185.38;5030568;28;20053;-50
2022/05/16 06:43:24;;;;;;;23.75;6.15;;;;;;;18.99;55.42;101185.59;5014083;28;20371;-48
2022/05/16 06:45:53;;;;;;;22.85;5.97;;;;;;;18.97;55.51;101194.19;5015270;28;20495;-48
2022/05/16 06:48:21;;;;;;;15.75;6.00;;;;;;;19.01;56.11;101195.19;5014383;28;20057;-48
2022/05/16 06:50:50;;;;;;;15.82;5.47;;;;;;;18.98;56.21;101193.06;5027011;28;20038;-49
2022/05/16 06:53:23;;;;;;;15.23;5.80;;;;;;;19.01;56.18;101195.19;5033850;28;20052;-49
2022/05/16 06:55:51;;;;;;;12.40;5.05;;;;;;;19.03;56.17;101203.16;5036368;28;20483;-49
2022/05/16 06:58:19;;;;;;;13.60;5.50;;;;;;;19.06;56.26;101208.84;5018712;28;20045;-47
2022/05/16 07:00:47;;;;;;;10.77;4.47;;;;;;;19.11;56.37;101205.97;5018737;28;20125;-47
2022/05/16 07:03:15;;;;;;;14.10;5.72;;;;;;;19.18;56.27;101205.50;5034379;28;20080;-49
2022/05/16 07:05:47;;;;;;;18.38;5.68;;;;;;;19.29;56.32;101211.56;5017069;28;20124;-48
2022/05/16 07:08:15;;;;;;;15.02;5.10;;;;;;;19.31;56.25;101204.63;5018454;28;20457;-47
2022/05/16 07:10:44;;;;;;;20.02;5.97;;;;;;;19.34;56.23;101205.94;5018784;28;20416;-47
2022/05/16 07:13:13;;;;;;;16.88;5.47;;;;;;;19.33;56.56;101216.16;5035901;28;20049;-48
2022/05/16 07:15:41;;;;;;;13.73;4.93;;;;;;;19.35;56.09;101224.94;5022605;28;20519;-51
2022/05/16 07:18:09;;;;;;;15.85;5.25;;;;;;;19.37;55.99;101219.91;4999023;28;20038;-48
2022/05/16 07:20:38;;;;;;;14.63;5.57;;;;;;;19.39;56.06;101216.03;5000561;28;20053;-46
2022/05/16 07:23:06;;;;;;;15.20;5.65;;;;;;;19.39;56.12;101222.38;5018079;28;20389;-52
2022/05/16 07:28:21;;;;;;;17.67;6.60;;;;;;;19.46;56.02;101219.13;5020363;28;20404;-47
2022/05/16 07:30:49;;;;;;;17.77;6.18;;;;;;;19.48;56.12;101220.47;5018604;28;20436;-50
2022/05/16 07:33:18;;;;;;;15.98;6.43;;;;;;;19.53;55.85;101225.00;5017862;28;20096;-48
2022/05/16 07:35:50;;;;;;;16.38;5.95;;;;;;;19.55;56.21;101225.50;5032393;28;20069;-49
2022/05/16 07:38:19;;;;;;;10.65;4.85;;;;;;;19.54;56.52;101227.47;5033917;28;20073;-48
2022/05/16 07:40:47;;;;;;;11.95;4.85;;;;;;;19.55;57.00;101229.13;5017577;28;20103;-47
2022/05/16 07:43:14;;;;;;;19.17;5.53;;;;;;;19.61;56.25;101228.97;5035777;28;20052;-51
2022/05/16 07:45:42;;;;;;;14.85;5.72;;;;;;;19.63;56.39;101223.94;5033547;28;20045;-51
2022/05/16 07:48:12;;;;;;;14.40;4.60;;;;;;;19.65;56.94;101229.94;5025577;28;20049;-46
2022/05/16 07:50:40;;;;;;;12.93;4.90;;;;;;;19.68;56.73;101230.16;5033478;28;20049;-45
2022/05/16 07:53:11;;;;;;;15.20;5.50;;;;;;;19.72;56.52;101224.78;5017896;28;20046;-47
2022/05/16 07:55:42;;;;;;;16.00;4.85;;;;;;;19.72;56.79;101227.56;5032928;28;20052;-47
2022/05/16 07:58:10;;;;;;;15.63;5.38;;;;;;;19.72;57.30;101233.91;5030680;28;20052;-48
2022/05/16 08:00:37;;;;;;;13.00;5.57;;;;;;;19.72;57.73;101227.56;5032776;28;20060;-48
2022/05/16 08:03:08;;;;;;;12.48;5.63;;;;;;;19.72;58.05;101231.16;5017261;28;20068;-47
2022/05/16 08:05:36;;;;;;;17.33;5.65;;;;;;;19.74;57.99;101230.81;5034969;28;20072;-47
2022/05/16 08:10:52;;;;;;;14.07;4.68;;;;;;;19.77;58.34;101236.53;5030090;28;20042;-47
2022/05/16 08:13:20;;;;;;;12.70;4.30;;;;;;;19.79;58.66;101241.72;5017420;28;20045;-48
2022/05/16 08:15:47;;;;;;;15.80;5.15;;;;;;;19.82;58.19;101246.63;5034766;28;20076;-48
2022/05/16 08:18:15;;;;;;;10.13;4.00;;;;;;;19.84;58.51;101247.09;5016315;28;20048;-50
2022/05/16 08:20:46;;;;;;;11.70;4.03;;;;;;;19.86;58.32;101253.13;5015912;28;20048;-48
2022/05/16 08:23:17;;;;;;;9.77;4.00;;;;;;;19.88;58.94;101250.88;5014919;28;20152;-48
2022/05/16 08:25:45;;;;;;;15.77;4.30;;;;;;;19.93;59.15;101250.72;5014793;28;20042;-48
2022/05/16 08:28:13;;;;;;;9.48;3.80;;;;;;;19.98;59.08;101249.75;5014603;28;20077;-47
2022/05/16 08:30:41;;;;;;;14.48;4.60;;;;;;;20.03;58.40;101259.88;5028752;28;20064;-49
2022/05/16 08:33:09;;;;;;;12.75;4.20;;;;;;;20.08;59.10;101245.88;5016774;28;20049;-49
2022/05/16 08:35:36;;;;;;;13.02;4.32;;;;;;;20.14;59.11;101259.25;5033921;28;20049;-49
2022/05/16 08:41:06;;;;;;;13.55;4.38;;;;;;;20.26;57.97;101255.84;5019354;28;20069;-49
2022/05/16 08:44:23;;;;;;;11.45;4.07;;;;;;;20.32;57.77;101265.63;4996534;28;20050;-49
2022/05/16 08:47:14;;;;;;;15.25;4.53;;;;;;;20.40;58.81;101267.59;4903411;29;20455;-50
2022/05/16 08:49:48;;;;;;;13.10;4.75;;;;;;;20.51;58.83;101261.72;4934737;29;20046;-48
2022/05/16 08:52:19;;;;;;;13.75;4.30;;;;;;;20.58;58.60;101273.16;4980244;28;20584;-48
2022/05/16 08:55:06;;;;;;;12.60;4.85;;;;;;;20.64;56.97;101271.88;5032143;28;20048;-49
2022/05/16 08:57:41;;;;;;;16.23;4.63;;;;;;;20.69;58.81;101274.50;5034375;28;20042;-45
2022/05/16 09:00:41;;;;;;;12.77;4.32;;;;;;;20.80;58.72;101275.78;5017590;28;20051;-49
2022/05/16 09:03:13;;;;;;;14.93;3.78;;;;;;;20.84;55.50;101260.13;5033852;28;20045;-47
2022/05/16 09:05:48;;;;;;;15.95;4.22;;;;;;;20.88;58.81;101265.84;5016195;28;20029;-47
2022/05/16 09:08:34;;;;;;;16.00;5.30;;;;;;;20.92;56.64;101271.53;5032165;28;20069;-51
2022/05/16 09:11:18;;;;;;;19.52;4.88;;;;;;;20.94;57.34;101261.75;5016505;28;20048;-48
2022/05/16 09:13:56;;;;;;;10.90;3.55;;;;;;;20.99;58.46;101260.78;4999865;28;20448;-44
2022/05/16 09:17:08;;;;;;;10.13;3.92;;;;;;;21.08;58.19;101266.31;5034115;28;20480;-53
2022/05/16 09:19:44;;;;;;;14.57;5.13;;;;;;;21.09;55.56;101260.44;4944212;28;20035;-50
2022/05/16 09:22:16;;;;;;;13.70;3.80;;;;;;;21.16;57.89;101260.75;5027328;28;20054;-53
2022/05/16 09:24:50;;;;;;;13.70;3.63;;;;;;;21.21;57.97;101257.81;5033587;28;20073;-48
2022/05/16 09:30:13;;;;;;;10.07;3.58;;;;;;;21.35;57.82;101257.59;5009139;28;20117;-45
2022/05/16 09:32:44;;;;;;;13.70;4.20;;;;;;;21.34;57.07;101255.19;5014759;28;20041;-46
2022/05/16 09:35:28;;;;;;;13.35;4.00;;;;;;;21.35;57.82;101257.59;4996535;28;20080;-48
2022/05/16 09:37:58;;;;;;;11.23;3.75;;;;;;;21.41;57.58;101261.88;5014114;28;20057;-48
2022/05/16 09:40:34;;;;;;;9.95;4.28;;;;;;;21.51;56.95;101260.69;4996200;28;20487;-49
2022/05/16 09:43:09;;;;;;;;;;;;;;;21.56;57.88;101252.19;4997066;28;20509;-47
2022/05/16 09:45:37;;;;;;;;;;;;;;;21.61;54.81;101246.44;4997756;28;19925;-46
2022/05/16 09:48:16;;;;;;;11.88;4.28;;;;;;;21.68;57.44;101249.53;4996009;28;20471;-48
2022/05/16 09:50:59;;;;;;;9.43;3.50;;;;;;;21.80;56.90;101240.50;4995802;28;20042;-48
2022/05/16 09:53:34;;;;;;;6.88;3.35;;;;;;;21.81;56.44;101246.84;4996164;28;20408;-47
2022/05/16 09:56:19;;;;;;;14.55;3.88;;;;;;;21.85;56.66;101245.84;5030131;28;20424;-49
2022/05/16 09:58:50;;;;;;;9.60;3.95;;;;;;;21.87;56.37;101243.56;4996335;28;20125;-47
2022/05/16 10:01:43;;;;;;;10.75;3.58;;;;;;;22.00;56.43;101252.78;5015300;28;20424;-46
2022/05/16 10:04:14;;;;;;;14.02;3.80;;;;;;;22.08;55.85;101263.03;5028049;28;20061;-48
2022/05/16 10:06:44;;;;;;;7.93;2.95;;;;;;;22.18;54.84;101263.81;5013541;28;20054;-48
2022/05/16 10:09:14;;;;;;;10.90;3.35;;;;;;;22.25;54.87;101266.88;4997116;28;20045;-48
2022/05/16 10:11:47;;;;;;;8.38;3.33;;;;;;;22.36;54.44;101281.97;5013236;28;20046;-50
2022/05/16 10:14:15;;;;;;;12.60;3.50;;;;;;;22.48;54.34;101282.06;5029821;28;20042;-48
2022/05/16 10:16:47;;;;;;;10.88;3.00;;;;;;;22.61;53.77;101280.19;4979909;28;20081;-48
2022/05/16 10:19:20;;;;;;;9.15;3.58;;;;;;;22.70;53.53;101282.88;5007829;28;20049;-52
2022/05/16 10:21:57;;;;;;;8.30;3.20;;;;;;;22.75;53.25;101291.84;5015099;28;20126;-48
2022/05/16 10:24:27;;;;;;;13.18;3.47;;;;;;;22.74;53.77;101286.59;5013505;28;20053;-47
2022/05/16 10:26:58;;;;;;;10.85;3.80;;;;;;;22.73;54.57;101298.88;5032657;28;20041;-48
2022/05/16 10:29:33;;;;;;;12.10;3.70;;;;;;;22.79;54.59;101291.97;5015560;28;20451;-48
2022/05/16 10:35:08;;;;;;;11.32;3.58;;;;;;;23.04;53.89;101292.94;5005922;28;20514;-51
2022/05/16 10:37:41;;;;;;;9.10;3.55;;;;;;;23.03;53.61;101304.38;5014896;28;20053;-47
2022/05/16 10:40:22;;;;;;;8.38;3.45;;;;;;;23.01;54.14;101301.13;5031105;28;20053;-50
2022/05/16 10:43:19;;;;;;;11.45;3.78;;;;;;;23.01;54.17;101303.91;5013612;28;20050;-49
2022/05/16 10:46:09;;;;;;;10.93;3.97;;;;;;;22.97;54.49;101310.13;4976989;28;20046;-48
2022/05/16 10:48:46;;;;;;;15.15;3.75;;;;;;;22.82;55.09;101310.72;5013011;28;20104;-47
2022/05/16 10:51:33;;;;;;;13.82;4.82;;;;;;;22.72;56.75;101323.06;5019306;28;20049;-50
2022/05/16 10:54:23;;;;;;;15.00;3.80;;;;;;;22.69;61.08;101331.25;5014743;28;20042;-48
2022/05/16 10:57:10;;;;;;;20.25;4.90;;;;;;;22.64;63.55;101340.59;5032661;28;20121;-54
2022/05/16 11:00:06;;;;;;;13.57;4.65;;;;;;;22.50;66.10;101340.84;5014964;28;20052;-52
2022/05/16 11:03:04;;;;;;;18.70;4.65;;;;;;;22.38;68.22;101349.09;5017205;28;20065;-50
2022/05/16 11:06:10;;;;;;;10.38;4.13;;;;;;;22.24;68.24;101356.84;5000840;28;20092;-48
2022/05/16 11:09:16;;;;;;;13.85;4.78;;;;;;;22.15;68.19;101358.81;5017582;28;20469;-52
2022/05/16 11:11:51;;;;;;;18.45;4.70;;;;;;;22.10;70.35;101368.16;5019195;28;20095;-49
2022/05/16 11:14:56;;;;;;;15.40;4.77;;;;;;;22.08;72.46;101385.16;5032203;28;20049;-49
2022/05/16 11:18:01;;;;;;;15.77;5.18;;;;;;;22.07;68.86;101382.69;5013145;28;20347;-50
2022/05/16 11:20:45;;;;;;;12.02;5.05;;;;;;;22.08;68.21;101381.53;5035950;28;20059;-49
2022/05/16 11:23:26;;;;;;;13.50;5.97;;;;;;;22.11;67.07;101378.94;5033804;28;20048;-50
2022/05/16 11:26:11;;;;;;;13.25;5.45;;;;;;;22.18;65.83;101383.16;5016031;28;20045;-48
2022/05/16 11:29:19;;;;;;;13.65;5.40;;;;;;;22.28;65.68;101389.16;5015002;28;20085;-47
2022/05/16 11:32:14;;;;;;;16.50;5.68;;;;;;;22.38;65.37;101385.19;5015902;28;20072;-48
2022/05/16 11:35:08;;;;;;;14.75;5.80;;;;;;;22.40;64.75;101385.69;5000116;28;20042;-46
2022/05/16 11:37:41;;;;;;;12.43;5.50;;;;;;;22.39;65.10;101389.59;4986884;28;20058;-47
2022/05/16 11:40:33;;;;;;;12.07;6.03;;;;;;;22.31;64.74;101388.50;5015611;28;20046;-48
2022/05/16 11:43:36;;;;;;;11.73;5.40;;;;;;;22.15;65.59;101401.25;5020155;28;20419;-47
2022/05/16 11:46:27;;;;;;;14.00;5.75;;;;;;;22.06;67.03;101404.09;5006670;28;20050;-47
2022/05/16 11:49:52;;;;;;;13.20;5.57;;;;;;;22.00;67.73;101410.94;5018038;28;20124;-52
2022/05/16 11:52:52;;;;;;;14.73;5.85;;;;;;;21.84;68.23;101420.94;4945226;28;20486;-48
2022/05/16 12:01:27;;;;;;;12.20;5.60;;;;;;;21.57;71.95;101436.81;5012489;28;20522;-47
2022/05/16 12:04:10;;;;;;;14.32;6.18;;;;;;;21.55;73.63;101441.91;5027883;28;20068;-49
2022/05/16 12:06:49;;;;;;;15.90;6.55;;;;;;;21.49;75.30;101454.28;5031623;28;20059;-48
2022/05/16 12:09:17;;;;;;;17.70;7.43;;;;;;;21.38;80.38;101461.25;5031634;28;20048;-47
2022/05/16 12:11:51;;;;;;;16.05;7.72;;;;;;;21.27;82.92;101456.06;5030415;28;20057;-48
2022/05/16 12:14:38;;;;;;;21.27;8.45;;;;;;;21.21;84.84;101451.81;5016656;28;20049;-51
2022/05/16 12:17:18;;;;;;;19.17;7.85;;;;;;;21.20;85.79;101449.38;4995429;28;20057;-48
2022/05/16 12:19:53;;;;;;;15.05;7.90;;;;;;;21.18;85.85;101452.44;4994888;28;20050;-48
2022/05/16 12:22:32;;;;;;;17.45;8.80;;;;;;;21.20;86.61;101452.94;4996303;28;20436;-49